Time;durP1;ratioP1;P1;durP2;ratioP2;P2;SDS_P1;SDS_P2;PMS_P1;PMS_P2;Temp;Humidity;BMP_temperature;BMP_pressure;BME280_temperature;BME280_humidity;BME280_pressure;Samples;Min_cycle;Max_cycle;Signal;HPM_P1;HPM_P2
2022/02/06 00:01:35;;;;;;;40.72;14.73;;;;;;;-12.04;92.62;98624.00;4977352;28;20046;-61
2022/02/06 00:04:02;;;;;;;48.60;22.38;;;;;;;-12.16;92.61;98580.03;4993523;28;20132;-58
2022/02/06 00:06:31;;;;;;;22.92;9.73;;;;;;;-12.18;92.54;98554.03;4993534;28;20053;-61
2022/02/06 00:08:56;;;;;;;42.92;17.10;;;;;;;-11.93;92.66;98595.94;4993835;28;20449;-60
2022/02/06 00:11:22;;;;;;;38.08;15.48;;;;;;;-11.87;91.59;98591.50;5009743;28;20046;-60
2022/02/06 00:13:48;;;;;;;44.13;17.95;;;;;;;-11.82;91.32;98579.16;4993162;28;20409;-61
2022/02/06 00:16:14;;;;;;;27.67;11.50;;;;;;;-11.79;91.59;98586.91;5011505;28;20076;-61
2022/02/06 00:18:42;;;;;;;37.03;14.70;;;;;;;-11.68;91.90;98569.22;4993739;28;20046;-61
2022/02/06 00:21:12;;;;;;;37.35;17.15;;;;;;;-11.67;91.15;98570.94;4977307;28;20050;-62
2022/02/06 00:23:38;;;;;;;36.00;14.88;;;;;;;-11.56;91.49;98560.22;4994577;28;20046;-62
2022/02/06 00:26:13;;;;;;;30.98;12.50;;;;;;;-11.70;90.96;98545.81;4977113;28;20137;-62
2022/02/06 00:28:44;;;;;;;38.20;14.25;;;;;;;-11.46;90.67;98570.34;4977856;28;20103;-62
2022/02/06 00:31:31;;;;;;;36.55;14.57;;;;;;;-11.44;90.52;98568.56;5009730;28;20053;-61
2022/02/06 00:39:16;;;;;;;28.90;10.68;;;;;;;-11.32;90.24;98562.16;5009378;28;20057;-62
2022/02/06 00:41:42;;;;;;;20.95;9.02;;;;;;;-11.45;89.84;98545.97;5009417;28;20391;-59
2022/02/06 00:44:09;;;;;;;35.67;14.57;;;;;;;-11.43;90.22;98543.34;4976973;28;20520;-62
2022/02/06 00:46:36;;;;;;;29.67;12.65;;;;;;;-11.37;90.52;98531.88;5009354;28;20118;-61
2022/02/06 00:49:16;;;;;;;40.28;16.83;;;;;;;-11.38;89.81;98525.81;5009090;28;20038;-61
2022/02/06 00:51:51;;;;;;;29.90;12.55;;;;;;;-11.50;90.18;98511.38;4994279;28;20050;-61
2022/02/06 00:54:17;;;;;;;33.60;13.45;;;;;;;-11.46;90.07;98523.41;5010488;28;20097;-60
2022/02/06 00:56:43;;;;;;;33.60;13.90;;;;;;;-11.42;89.98;98530.25;4960323;28;20042;-60
2022/02/06 00:59:08;;;;;;;41.25;16.65;;;;;;;-11.38;90.04;98531.03;5009217;28;20045;-60
2022/02/06 01:01:36;;;;;;;32.35;12.63;;;;;;;-11.46;89.56;98522.56;4960888;28;20050;-61
2022/02/06 01:04:02;;;;;;;34.33;15.05;;;;;;;-11.42;89.67;98519.81;5009355;28;20157;-62
2022/02/06 01:06:28;;;;;;;34.63;13.88;;;;;;;-11.37;89.83;98522.31;5009377;28;20053;-63
2022/02/06 01:08:54;;;;;;;25.63;10.88;;;;;;;-11.36;89.54;98526.63;4994409;28;20046;-62
2022/02/06 01:11:20;;;;;;;32.55;13.70;;;;;;;-11.36;89.30;98512.75;5013689;28;20494;-62
2022/02/06 01:16:20;;;;;;;32.42;12.80;;;;;;;-11.34;89.24;98517.00;5014716;28;20050;-61
2022/02/06 01:19:12;;;;;;;29.45;12.05;;;;;;;-11.39;89.66;98497.19;5014237;28;20121;-61
2022/02/06 01:29:12;;;;;;;34.88;13.88;;;;;;;-11.19;88.93;98485.25;5012619;28;20409;-59
2022/02/06 01:34:05;;;;;;;34.60;13.90;;;;;;;-11.27;89.15;98471.56;4995958;28;20112;-62
2022/02/06 01:36:43;;;;;;;35.90;13.75;;;;;;;-11.28;89.23;98464.66;4980047;28;20114;-62
2022/02/06 01:39:44;;;;;;;34.30;14.70;;;;;;;-11.24;89.25;98460.22;5012761;28;20128;-60
2022/02/06 01:41:59;;;;;;;38.33;16.60;;;;;;;-11.28;89.03;98474.25;5011066;28;20061;-62
2022/02/06 01:44:49;;;;;;;34.72;12.95;;;;;;;-11.33;89.04;98456.13;4996539;28;20037;-61
2022/02/06 02:00:46;;;;;;;14.82;5.60;;;;;;;-11.10;89.25;98473.69;5011936;28;20046;-61
2022/02/06 02:03:18;;;;;;;35.63;13.70;;;;;;;-11.25;89.06;98448.94;4983071;28;20050;-59
2022/02/06 02:13:32;;;;;;;33.65;13.32;;;;;;;-11.23;89.09;98404.53;5011765;28;20140;-60
2022/02/06 02:18:53;;;;;;;39.72;15.57;;;;;;;-11.34;89.33;98385.75;4979415;28;20073;-59
2022/02/06 02:45:13;;;;;;;46.47;16.80;;;;;;;-11.20;90.17;98391.41;5012986;28;20057;-59
2022/02/06 02:47:43;;;;;;;31.55;13.88;;;;;;;-11.12;90.79;98381.56;5012246;28;20409;-62
2022/02/06 02:50:23;;;;;;;41.65;16.58;;;;;;;-10.96;90.72;98403.66;4980181;28;20049;-60
2022/02/06 02:53:13;;;;;;;34.22;14.77;;;;;;;-10.95;90.07;98410.59;5012347;28;20433;-61
2022/02/06 03:00:50;;;;;;;38.67;13.82;;;;;;;-11.05;90.43;98377.00;4996016;28;20042;-64
2022/02/06 03:03:27;;;;;;;43.75;16.35;;;;;;;-10.94;90.42;98411.44;4996774;28;20089;-63
2022/02/06 03:05:55;;;;;;;43.35;15.52;;;;;;;-10.89;90.67;98395.63;4980508;28;20041;-62
2022/02/06 03:08:21;;;;;;;44.20;16.35;;;;;;;-10.93;90.95;98393.13;4978216;28;20177;-61
2022/02/06 03:10:50;;;;;;;42.17;18.20;;;;;;;-11.22;90.22;98343.66;4967921;28;20572;-60
2022/02/06 03:13:18;;;;;;;49.00;18.13;;;;;;;-10.89;90.65;98393.00;5000732;28;20049;-62
2022/02/06 03:15:49;;;;;;;39.65;13.70;;;;;;;-10.82;91.13;98384.06;4996216;28;20045;-61
2022/02/06 03:18:19;;;;;;;36.65;14.73;;;;;;;-10.78;90.77;98385.72;5016765;28;20104;-61
2022/02/06 03:20:46;;;;;;;31.42;11.82;;;;;;;-10.86;90.26;98366.81;4996044;28;20494;-64
2022/02/06 03:23:13;;;;;;;41.17;16.20;;;;;;;-10.78;89.54;98385.72;5012769;28;20077;-62
2022/02/06 03:25:52;;;;;;;37.70;13.82;;;;;;;-10.90;88.98;98354.78;5010981;28;20053;-62
2022/02/06 03:28:23;;;;;;;37.67;13.57;;;;;;;-10.77;89.68;98379.56;5009757;28;20085;-63
2022/02/06 03:30:49;;;;;;;27.60;9.50;;;;;;;-10.70;89.65;98358.44;5010684;28;20128;-62
2022/02/06 03:33:15;;;;;;;41.05;15.45;;;;;;;-10.66;89.44;98374.84;4978460;28;20057;-63
2022/02/06 03:35:41;;;;;;;40.03;16.13;;;;;;;-10.76;89.77;98366.47;4946507;28;20053;-61
2022/02/06 03:38:07;;;;;;;38.70;14.98;;;;;;;-10.71;89.75;98363.72;4994990;28;20498;-62
2022/02/06 03:40:47;;;;;;;45.58;19.75;;;;;;;-10.70;89.80;98373.25;4978522;28;20596;-65
2022/02/06 03:43:19;;;;;;;41.58;16.90;;;;;;;-10.74;90.29;98366.44;4996792;28;20544;-65
2022/02/06 03:45:56;;;;;;;44.65;17.50;;;;;;;-10.72;90.57;98369.81;4995772;28;20049;-62
2022/02/06 03:48:23;;;;;;;45.15;19.45;;;;;;;-10.73;89.87;98368.97;4994603;28;20045;-61
2022/02/06 03:50:52;;;;;;;45.25;18.33;;;;;;;-10.80;90.35;98356.19;5010507;28;20049;-62
2022/02/06 03:53:21;;;;;;;43.38;16.77;;;;;;;-10.67;89.99;98362.72;4993668;28;20049;-62
2022/02/06 03:55:48;;;;;;;43.15;15.98;;;;;;;-10.77;89.44;98356.94;4978001;28;20041;-62
2022/02/06 03:58:14;;;;;;;40.85;17.90;;;;;;;-10.73;89.75;98362.91;4993763;28;20061;-62
2022/02/06 04:00:40;;;;;;;46.17;19.92;;;;;;;-10.78;89.98;98370.06;5010199;28;20413;-61
2022/02/06 04:03:07;;;;;;;43.53;15.57;;;;;;;-10.74;90.46;98359.44;4977344;28;20494;-63
2022/02/06 04:05:32;;;;;;;47.63;17.20;;;;;;;-10.80;90.17;98361.41;4993397;28;20044;-59
2022/02/06 04:07:58;;;;;;;46.75;17.35;;;;;;;-10.80;90.37;98361.41;4976822;28;20053;-62
2022/02/06 04:10:32;;;;;;;41.20;14.98;;;;;;;-10.72;89.91;98359.38;4993696;28;20282;-63
2022/02/06 04:13:00;;;;;;;47.70;18.88;;;;;;;-10.74;90.46;98356.00;5010002;28;20042;-62
2022/02/06 04:15:36;;;;;;;43.38;18.13;;;;;;;-10.71;90.55;98361.13;4993839;28;20041;-61
2022/02/06 04:18:13;;;;;;;49.83;21.55;;;;;;;-10.77;90.10;98356.09;4962200;28;20069;-61
2022/02/06 04:20:40;;;;;;;49.78;19.23;;;;;;;-10.72;90.10;98362.00;4978817;28;20038;-62
2022/02/06 04:23:06;;;;;;;40.90;16.48;;;;;;;-10.63;89.98;98363.47;5009750;28;20085;-62
2022/02/06 04:25:32;;;;;;;43.67;16.85;;;;;;;-10.61;89.40;98372.91;4993530;28;20041;-63
2022/02/06 04:27:57;;;;;;;38.03;15.60;;;;;;;-10.69;89.17;98364.50;4977283;28;20125;-62
2022/02/06 04:30:23;;;;;;;23.80;10.25;;;;;;;-10.58;89.24;98369.38;4976700;28;20502;-62
2022/02/06 04:32:49;;;;;;;48.75;19.33;;;;;;;-10.72;89.02;98373.28;4960756;28;20467;-63
2022/02/06 04:35:19;;;;;;;50.22;18.90;;;;;;;-10.68;90.02;98374.03;4976649;28;20077;-62
2022/02/06 04:46:13;;;;;;;21.88;7.85;;;;;;;-10.75;88.53;98347.31;4977047;28;20359;-63
2022/02/06 04:54:27;;;;;;;48.40;20.88;;;;;;;-10.72;88.35;98375.03;5009402;28;20100;-62
2022/02/06 05:29:47;;;;;;;49.20;18.48;;;;;;;-10.93;88.67;98366.19;4992375;28;20131;-62
2022/02/06 05:32:33;;;;;;;50.58;17.33;;;;;;;-10.85;89.23;98369.41;4963563;28;20046;-61
2022/02/06 05:34:59;;;;;;;52.47;20.58;;;;;;;-10.85;88.83;98363.31;4979963;28;20041;-63
2022/02/06 05:37:26;;;;;;;51.40;18.27;;;;;;;-10.87;88.34;98365.13;4976942;28;20581;-62
2022/02/06 05:39:53;;;;;;;51.35;17.58;;;;;;;-10.93;88.23;98346.16;4977215;28;20050;-61
2022/02/06 05:42:20;;;;;;;46.95;15.95;;;;;;;-10.85;88.92;98352.88;5009429;28;20056;-64
2022/02/06 05:44:53;;;;;;;51.53;19.10;;;;;;;-10.86;88.38;98356.38;4993329;28;20045;-62
2022/02/06 05:47:19;;;;;;;55.72;19.67;;;;;;;-10.87;88.19;98359.91;5010811;28;20053;-61
2022/02/06 05:49:44;;;;;;;53.83;16.13;;;;;;;-10.84;87.94;98354.59;4977135;28;20204;-66
2022/02/06 05:52:10;;;;;;;53.30;21.25;;;;;;;-10.94;88.15;98365.31;4992282;28;20482;-63
2022/02/06 05:54:36;;;;;;;18.35;8.00;;;;;;;-10.83;88.26;98351.06;4959355;28;20049;-62
2022/02/06 05:57:02;;;;;;;28.23;9.63;;;;;;;-10.73;88.11;98357.69;4994822;28;20132;-62
2022/02/06 05:59:28;;;;;;;55.15;18.90;;;;;;;-10.84;87.97;98351.97;5011780;28;20079;-61
2022/02/06 06:01:55;;;;;;;54.38;21.90;;;;;;;-10.83;87.69;98351.06;4995682;28;20566;-63
2022/02/06 06:04:21;;;;;;;47.83;19.52;;;;;;;-10.91;88.23;98353.94;5011591;28;20065;-61
2022/02/06 06:06:47;;;;;;;50.72;19.73;;;;;;;-10.81;88.25;98359.72;5011948;28;20141;-62
2022/02/06 06:09:13;;;;;;;48.28;17.27;;;;;;;-10.80;87.49;98366.63;5012070;28;20037;-62
2022/02/06 06:11:38;;;;;;;51.55;19.13;;;;;;;-10.97;87.48;98328.91;4994521;28;20544;-62
2022/02/06 06:14:04;;;;;;;51.65;19.45;;;;;;;-10.77;87.33;98366.53;4979310;28;20519;-62
2022/02/06 06:16:33;;;;;;;50.00;20.30;;;;;;;-10.75;86.89;98356.88;4995564;28;20061;-61
2022/02/06 06:19:01;;;;;;;37.75;13.50;;;;;;;-10.70;87.19;98360.19;4995718;28;20085;-63
2022/02/06 06:21:29;;;;;;;30.95;13.45;;;;;;;-10.59;87.12;98358.06;4963160;28;20042;-61
2022/02/06 06:23:56;;;;;;;46.60;20.50;;;;;;;-10.62;86.43;98370.38;4979376;28;20092;-61
2022/02/06 06:26:24;;;;;;;43.63;16.27;;;;;;;-10.59;86.46;98358.06;4979675;28;20064;-62
2022/02/06 06:28:50;;;;;;;38.38;17.38;;;;;;;-10.47;86.39;98362.84;4979464;28;20137;-62
2022/02/06 06:31:16;;;;;;;48.60;19.73;;;;;;;-10.59;86.19;98370.28;4978535;28;20073;-63
2022/02/06 06:33:42;;;;;;;36.40;13.43;;;;;;;-10.42;85.94;98367.91;4963020;28;20072;-62
2022/02/06 06:36:08;;;;;;;41.25;14.90;;;;;;;-10.32;85.30;98358.84;4979241;28;20050;-63
2022/02/06 06:38:35;;;;;;;48.75;18.42;;;;;;;-10.38;85.08;98347.75;4979033;28;20210;-62
2022/02/06 06:41:01;;;;;;;40.67;15.30;;;;;;;-10.25;84.85;98364.72;4947527;28;20458;-61
2022/02/06 06:43:27;;;;;;;47.47;19.30;;;;;;;-10.18;84.08;98360.94;4963014;28;20050;-62
2022/02/06 06:45:53;;;;;;;40.25;14.45;;;;;;;-9.83;83.13;98369.28;4978919;28;20100;-59
2022/02/06 06:48:19;;;;;;;37.65;16.20;;;;;;;-9.45;81.92;98361.75;4978999;28;20072;-64
2022/02/06 06:50:45;;;;;;;39.95;14.70;;;;;;;-9.33;80.11;98354.25;4978790;28;20552;-64
2022/02/06 06:53:12;;;;;;;43.08;19.60;;;;;;;-9.40;79.51;98360.63;4980943;28;20041;-64
2022/02/06 06:55:41;;;;;;;38.28;15.40;;;;;;;-8.99;79.02;98345.91;4986730;28;20056;-64
2022/02/06 06:58:15;;;;;;;42.10;17.42;;;;;;;-8.72;77.35;98364.03;4994531;28;20049;-64
2022/02/06 07:03:13;;;;;;;35.85;14.40;;;;;;;-7.76;73.71;98345.81;5010604;28;20050;-64
2022/02/06 07:05:38;;;;;;;42.17;19.77;;;;;;;-7.91;72.68;98351.75;4994494;28;20042;-64
2022/02/06 07:08:05;;;;;;;44.20;19.02;;;;;;;-7.97;73.41;98357.28;4994602;28;20061;-64
2022/02/06 07:10:31;;;;;;;40.33;16.00;;;;;;;-7.07;70.60;98346.06;4993631;28;20084;-66
2022/02/06 07:12:57;;;;;;;36.92;15.15;;;;;;;-6.82;70.21;98352.75;5025899;28;20110;-69
2022/02/06 07:15:23;;;;;;;34.03;14.65;;;;;;;-7.36;70.53;98359.72;5006996;28;20447;-64
2022/02/06 07:17:48;;;;;;;42.55;14.27;;;;;;;-7.48;70.80;98360.31;5003545;28;20045;-64
2022/02/06 07:20:15;;;;;;;38.38;15.20;;;;;;;-7.39;71.66;98349.38;4983191;28;20046;-64
2022/02/06 07:22:40;;;;;;;38.58;14.93;;;;;;;-7.46;70.58;98350.56;4992191;28;20057;-64
2022/02/06 07:25:13;;;;;;;28.45;12.48;;;;;;;-7.34;71.51;98348.25;5008965;28;20536;-66
2022/02/06 07:27:46;;;;;;;37.90;14.65;;;;;;;-7.21;71.21;98343.25;5008273;28;20398;-65
2022/02/06 07:30:13;;;;;;;40.92;15.57;;;;;;;-7.37;71.22;98352.78;5013892;28;20409;-64
2022/02/06 07:32:39;;;;;;;33.58;14.63;;;;;;;-7.64;71.95;98345.28;5005919;28;20046;-64
2022/02/06 07:35:08;;;;;;;37.50;14.27;;;;;;;-7.55;72.93;98355.34;4991755;28;20044;-65
2022/02/06 07:37:34;;;;;;;42.65;16.75;;;;;;;-8.29;75.36;98341.22;5035596;28;20054;-65
2022/02/06 07:40:00;;;;;;;43.92;20.25;;;;;;;-8.60;76.85;98349.56;4974531;28;20661;-66
2022/02/06 07:42:26;;;;;;;41.78;18.85;;;;;;;-8.79;77.07;98341.63;4998943;28;20052;-67
2022/02/06 07:44:58;;;;;;;36.20;14.88;;;;;;;-8.50;77.82;98336.00;4997898;28;20196;-64
2022/02/06 07:47:25;;;;;;;40.92;16.85;;;;;;;-8.37;77.79;98351.19;4999721;28;20058;-62
2022/02/06 07:49:52;;;;;;;43.40;17.38;;;;;;;-8.30;77.16;98339.47;5004450;28;20046;-64
2022/02/06 07:52:23;;;;;;;36.13;13.48;;;;;;;-8.18;76.42;98349.44;4996241;28;20576;-65
2022/02/06 07:54:49;;;;;;;44.00;20.65;;;;;;;-8.42;76.82;98346.16;4997970;28;20053;-64
2022/02/06 07:57:15;;;;;;;42.70;16.85;;;;;;;-8.30;77.87;98347.34;4979347;28;20169;-66
2022/02/06 07:59:41;;;;;;;44.00;18.02;;;;;;;-8.15;78.52;98343.19;5007850;28;20268;-64
2022/02/06 08:02:08;;;;;;;37.08;15.32;;;;;;;-7.81;76.04;98366.16;4986619;28;20110;-66
2022/02/06 08:04:37;;;;;;;38.05;14.27;;;;;;;-7.78;75.06;98352.94;5009008;28;20050;-65
2022/02/06 08:07:04;;;;;;;36.60;14.05;;;;;;;-7.83;75.57;98365.38;4998976;28;20065;-67
2022/02/06 08:12:15;;;;;;;39.65;15.23;;;;;;;-7.47;73.91;98346.25;5019583;28;20506;-65
2022/02/06 08:14:55;;;;;;;43.25;16.77;;;;;;;-7.30;73.98;98354.19;5005407;28;20042;-65
2022/02/06 08:17:27;;;;;;;41.80;17.98;;;;;;;-7.40;74.01;98353.75;4966339;28;20056;-65
2022/02/06 08:19:54;;;;;;;34.85;13.98;;;;;;;-7.00;72.43;98328.22;4980955;28;20042;-65
2022/02/06 08:22:21;;;;;;;38.35;14.57;;;;;;;-6.88;71.72;98324.16;5034939;28;20077;-65
2022/02/06 08:24:47;;;;;;;40.22;16.08;;;;;;;-6.60;70.70;98353.38;4992436;28;20538;-67
2022/02/06 08:27:14;;;;;;;24.65;11.00;;;;;;;-6.26;69.02;98359.56;5018015;28;20060;-64
2022/02/06 08:29:42;;;;;;;37.97;15.82;;;;;;;-5.89;67.80;98353.19;4957764;28;20126;-64
2022/02/06 08:32:09;;;;;;;37.78;14.95;;;;;;;-5.78;68.92;98365.78;4968413;28;20391;-64
2022/02/06 08:34:35;;;;;;;35.25;15.98;;;;;;;-5.39;65.98;98351.41;5020531;28;20046;-66
2022/02/06 08:37:05;;;;;;;40.05;15.15;;;;;;;-5.09;64.51;98364.66;4975113;28;20129;-67
2022/02/06 08:39:34;;;;;;;38.97;16.60;;;;;;;-5.13;64.27;98356.09;5033855;28;20100;-67
2022/02/06 08:42:01;;;;;;;39.83;16.35;;;;;;;-4.95;64.21;98358.63;5010744;28;20104;-66
2022/02/06 08:44:28;;;;;;;35.15;14.88;;;;;;;-4.67;62.97;98356.13;4984825;28;20050;-64
2022/02/06 08:46:57;;;;;;;35.63;16.02;;;;;;;-4.65;62.23;98354.22;4987201;28;20118;-61
2022/02/06 08:49:23;;;;;;;37.53;17.55;;;;;;;-4.98;62.79;98345.63;4974780;28;20058;-65
2022/02/06 08:51:50;;;;;;;38.92;17.38;;;;;;;-5.59;64.43;98350.72;5006036;28;20082;-65
2022/02/06 08:54:16;;;;;;;42.63;18.67;;;;;;;-5.41;65.37;98348.00;4998187;28;20057;-64
2022/02/06 08:56:42;;;;;;;33.30;13.18;;;;;;;-5.19;65.35;98355.56;4989261;28;20038;-65
2022/02/06 08:59:09;;;;;;;33.30;16.17;;;;;;;-4.91;63.65;98357.53;4952742;28;20053;-63
2022/02/06 09:01:36;;;;;;;37.38;14.80;;;;;;;-4.69;63.24;98360.63;5021513;28;20042;-62
2022/02/06 09:04:03;;;;;;;35.47;13.98;;;;;;;-3.94;61.57;98355.38;5032694;28;20442;-64
2022/02/06 09:06:29;;;;;;;40.95;18.70;;;;;;;-4.98;62.76;98346.47;5025168;28;20153;-64
2022/02/06 09:08:58;;;;;;;36.97;16.67;;;;;;;-4.86;63.51;98334.41;4997266;28;20140;-64
2022/02/06 09:11:28;;;;;;;38.85;16.90;;;;;;;-4.98;64.03;98357.00;4998121;28;20045;-64
2022/02/06 09:13:55;;;;;;;35.78;15.13;;;;;;;-4.04;63.18;98359.50;5007192;28;20141;-65
2022/02/06 09:16:22;;;;;;;36.40;14.88;;;;;;;-3.84;61.04;98350.34;5006017;28;20046;-64
2022/02/06 09:18:50;;;;;;;36.70;13.93;;;;;;;-3.12;60.22;98348.50;5028478;28;20104;-63
2022/02/06 09:21:16;;;;;;;38.30;17.63;;;;;;;-2.63;56.72;98346.19;5004875;28;20129;-64
2022/02/06 09:23:43;;;;;;;41.70;17.40;;;;;;;-1.22;54.64;98336.47;5017795;28;20042;-66
2022/02/06 09:26:11;;;;;;;33.42;15.40;;;;;;;-0.68;54.49;98332.59;4989394;28;20486;-66
2022/02/06 09:28:37;;;;;;;32.67;13.98;;;;;;;-0.22;50.21;98342.41;5031193;28;20050;-66
2022/02/06 09:31:03;;;;;;;34.45;16.30;;;;;;;-0.29;49.19;98348.22;4993430;28;20048;-67
2022/02/06 09:35:54;;;;;;;32.33;14.15;;;;;;;0.00;49.43;98345.16;5002295;28;20058;-65
2022/02/06 09:38:21;;;;;;;36.75;16.40;;;;;;;-0.37;48.93;98339.94;4989753;28;20070;-66
2022/02/06 09:40:48;;;;;;;33.38;15.43;;;;;;;-0.96;50.35;98342.56;5029771;28;20521;-67
2022/02/06 09:43:14;;;;;;;37.58;15.75;;;;;;;-1.72;51.88;98328.53;5023135;28;20468;-67
2022/02/06 09:45:41;;;;;;;36.15;15.90;;;;;;;-2.76;55.75;98330.28;5024885;28;20046;-66
2022/02/06 09:48:10;;;;;;;38.40;16.02;;;;;;;-3.36;57.81;98341.22;4960082;28;20125;-68
2022/02/06 09:50:37;;;;;;;38.83;17.50;;;;;;;-3.94;59.76;98344.81;4970663;28;20052;-68
2022/02/06 09:53:03;;;;;;;43.22;18.85;;;;;;;-4.98;63.17;98335.09;5009201;28;20053;-66
2022/02/06 09:55:30;;;;;;;44.83;19.75;;;;;;;-4.93;64.75;98333.91;5009131;28;20132;-64
2022/02/06 09:58:12;;;;;;;39.95;17.23;;;;;;;-5.45;66.20;98352.59;4992765;28;20034;-65
2022/02/06 10:00:38;;;;;;;45.58;18.17;;;;;;;-5.29;66.34;98346.50;4991437;28;20387;-65
2022/02/06 10:03:07;;;;;;;39.25;17.08;;;;;;;-5.23;65.51;98336.47;5000643;28;20573;-65
2022/02/06 10:05:35;;;;;;;38.35;18.13;;;;;;;-5.51;66.39;98344.19;5008960;28;20037;-65
2022/02/06 10:08:20;;;;;;;42.38;17.95;;;;;;;-5.71;68.23;98351.38;5024601;28;20352;-65
2022/02/06 10:11:07;;;;;;;45.22;18.15;;;;;;;-5.78;68.57;98344.72;5024539;28;20077;-68
2022/02/06 10:13:39;;;;;;;38.03;17.52;;;;;;;-6.18;68.73;98325.84;5034197;28;20086;-70
2022/02/06 10:16:06;;;;;;;40.92;17.65;;;;;;;-6.21;69.37;98326.00;5002458;28;20050;-62
2022/02/06 10:18:33;;;;;;;37.47;16.05;;;;;;;-6.01;69.37;98340.72;5015563;28;20169;-64
2022/02/06 10:20:58;;;;;;;41.22;18.23;;;;;;;-6.34;70.03;98303.91;4991848;28;20188;-65
2022/02/06 10:23:40;;;;;;;36.63;17.38;;;;;;;-6.17;70.46;98337.22;5033315;28;20181;-67
2022/02/06 10:31:56;;;;;;;39.30;14.82;;;;;;;-6.36;71.39;98338.16;5008620;28;20412;-69
2022/02/06 10:34:24;;;;;;;40.38;16.77;;;;;;;-6.59;71.72;98328.78;5010979;28;20377;-64
2022/02/06 10:37:10;;;;;;;37.75;13.68;;;;;;;-6.29;72.28;98346.56;4995678;28;20049;-64
2022/02/06 10:39:39;;;;;;;37.10;15.65;;;;;;;-5.96;71.89;98345.75;5037841;28;20097;-64
2022/02/06 10:42:21;;;;;;;37.97;15.30;;;;;;;-6.07;70.97;98344.53;5011390;28;20226;-64
2022/02/06 10:44:49;;;;;;;38.45;16.70;;;;;;;-6.04;70.91;98338.25;5031770;28;20088;-64
2022/02/06 10:47:17;;;;;;;40.70;15.15;;;;;;;-5.89;71.52;98344.44;5012588;28;20445;-64
2022/02/06 10:49:43;;;;;;;39.03;16.85;;;;;;;-5.84;71.48;98342.44;4990431;28;20072;-64
2022/02/06 10:52:09;;;;;;;38.45;16.90;;;;;;;-5.63;70.44;98332.53;4996612;28;20133;-64
2022/02/06 10:54:37;;;;;;;40.45;18.08;;;;;;;-6.19;71.78;98341.69;4989454;28;20045;-65
2022/02/06 10:57:11;;;;;;;40.80;17.08;;;;;;;-5.97;72.43;98341.41;5018052;28;20045;-64
2022/02/06 10:59:40;;;;;;;37.40;16.02;;;;;;;-5.66;70.98;98348.50;4994213;28;20148;-64
2022/02/06 11:02:45;;;;;;;41.22;17.13;;;;;;;-5.72;70.42;98317.25;4978856;28;20050;-64
2022/02/06 11:05:21;;;;;;;42.85;15.80;;;;;;;-5.97;70.22;98315.09;5012862;28;20514;-64
2022/02/06 11:07:55;;;;;;;39.20;16.42;;;;;;;-5.80;70.57;98351.03;5013894;28;20068;-64
2022/02/06 11:10:26;;;;;;;39.78;15.35;;;;;;;-5.96;70.60;98324.69;4996829;28;20052;-64
2022/02/06 11:13:05;;;;;;;40.67;16.25;;;;;;;-5.78;71.29;98344.72;5013021;28;20045;-64
2022/02/06 11:15:45;;;;;;;36.70;15.95;;;;;;;-5.64;71.07;98339.56;4991396;28;20512;-63
2022/02/06 11:18:19;;;;;;;39.97;15.60;;;;;;;-5.57;71.38;98330.41;4992974;28;20127;-65
2022/02/06 11:20:59;;;;;;;38.80;15.95;;;;;;;-5.36;70.39;98340.72;4994246;28;20187;-64
2022/02/06 11:23:40;;;;;;;37.88;14.25;;;;;;;-5.46;71.14;98335.09;4974960;28;20053;-64
2022/02/06 11:26:11;;;;;;;31.48;12.43;;;;;;;-5.39;70.81;98335.63;5026010;28;20268;-64
2022/02/06 11:28:38;;;;;;;38.67;15.40;;;;;;;-5.47;70.86;98343.09;5042486;28;20041;-64
2022/02/06 11:31:04;;;;;;;40.33;15.80;;;;;;;-5.34;70.67;98325.66;5009092;28;20086;-65
2022/02/06 11:33:30;;;;;;;42.45;17.90;;;;;;;-5.41;71.62;98342.75;4996085;28;20053;-64
2022/02/06 11:36:05;;;;;;;39.83;17.35;;;;;;;-5.52;71.36;98345.09;4982652;28;20136;-64
2022/02/06 11:44:23;;;;;;;34.67;14.73;;;;;;;-5.73;74.69;98353.25;5023582;28;20041;-64
2022/02/06 11:47:09;;;;;;;42.88;17.90;;;;;;;-5.88;74.23;98354.06;4978125;28;20042;-64
2022/02/06 11:49:37;;;;;;;40.00;15.75;;;;;;;-6.03;75.31;98353.13;4993544;28;20049;-64
2022/02/06 11:52:03;;;;;;;45.03;18.05;;;;;;;-6.12;76.24;98335.19;5028319;28;20080;-64
2022/02/06 11:54:49;;;;;;;42.72;17.60;;;;;;;-5.99;77.35;98340.66;4991487;28;20076;-64
2022/02/06 11:57:24;;;;;;;44.40;18.38;;;;;;;-6.04;77.62;98356.66;4961901;28;20136;-64
2022/02/06 12:00:08;;;;;;;38.45;16.27;;;;;;;-5.80;77.37;98351.88;5028413;28;20041;-63
2022/02/06 12:02:47;;;;;;;39.58;15.60;;;;;;;-5.74;76.50;98350.69;5011928;28;20042;-64
2022/02/06 12:05:26;;;;;;;39.72;13.25;;;;;;;-5.84;76.12;98345.91;5009880;28;20041;-64
2022/02/06 12:07:52;;;;;;;42.08;16.52;;;;;;;-5.75;76.72;98352.47;5041535;28;20049;-64
2022/02/06 12:10:42;;;;;;;39.88;16.98;;;;;;;-5.64;76.90;98350.09;4993575;28;20129;-64
2022/02/06 12:13:18;;;;;;;49.53;17.92;;;;;;;-5.54;76.23;98352.25;4993595;28;20041;-64
2022/02/06 12:16:02;;;;;;;41.30;16.13;;;;;;;-5.58;76.40;98352.41;4976984;28;20506;-65
2022/02/06 12:18:28;;;;;;;;;;;;;;;-5.49;77.55;98358.97;4994865;28;20037;-65
2022/02/06 12:20:56;;;;;;;41.83;17.20;;;;;;;-5.47;77.29;98356.25;5014035;28;19924;-65
2022/02/06 12:23:42;;;;;;;38.13;15.55;;;;;;;-5.58;77.65;98362.09;4994789;28;20117;-65
2022/02/06 12:26:40;;;;;;;39.22;15.18;;;;;;;-5.61;77.20;98360.47;4992859;28;20053;-65
2022/02/06 12:29:11;;;;;;;40.67;15.38;;;;;;;-5.62;77.73;98356.16;4977573;28;20141;-65
2022/02/06 12:32:01;;;;;;;46.95;18.63;;;;;;;-6.04;77.98;98347.94;4993832;28;20137;-65
2022/02/06 12:37:33;;;;;;;40.17;14.77;;;;;;;-6.18;81.44;98346.88;5006048;28;20457;-65
2022/02/06 12:40:10;;;;;;;44.80;19.13;;;;;;;-6.18;80.65;98351.28;5014157;28;20037;-64
2022/02/06 12:42:47;;;;;;;41.63;16.17;;;;;;;-6.12;81.61;98351.81;5013811;28;20131;-65
2022/02/06 12:45:16;;;;;;;41.78;16.88;;;;;;;-6.14;81.88;98364.22;5025905;28;20077;-65
2022/02/06 12:47:44;;;;;;;43.33;17.35;;;;;;;-6.19;81.96;98360.94;5042910;28;20045;-64
2022/02/06 12:50:19;;;;;;;44.67;17.63;;;;;;;-6.22;81.97;98355.84;5031825;28;20046;-65
2022/02/06 12:52:46;;;;;;;44.08;18.45;;;;;;;-6.29;82.48;98367.59;4995119;28;20057;-65
2022/02/06 12:55:12;;;;;;;48.67;19.05;;;;;;;-6.34;83.05;98377.50;4970911;28;20050;-65
2022/02/06 12:57:47;;;;;;;47.13;17.23;;;;;;;-6.49;84.19;98342.34;5025884;28;20046;-64
2022/02/06 13:00:48;;;;;;;48.08;22.42;;;;;;;-6.58;83.78;98375.19;4993381;28;20049;-64
2022/02/06 13:03:23;;;;;;;46.95;18.67;;;;;;;-6.62;86.13;98371.03;5008360;28;20100;-65
2022/02/06 13:05:59;;;;;;;48.35;17.92;;;;;;;-6.75;85.92;98366.44;4996439;28;20054;-65
2022/02/06 13:08:25;;;;;;;51.30;19.77;;;;;;;-6.69;86.34;98371.38;5013596;28;20053;-64
2022/02/06 13:10:58;;;;;;;41.83;18.30;;;;;;;-6.72;85.82;98372.41;4999641;28;20115;-65
2022/02/06 13:13:31;;;;;;;44.25;18.48;;;;;;;-6.64;86.78;98364.13;5015529;28;20091;-64
2022/02/06 13:16:33;;;;;;;45.53;17.88;;;;;;;-6.69;87.08;98356.47;4985793;28;20494;-65
2022/02/06 13:24:25;;;;;;;48.40;18.13;;;;;;;-6.78;87.02;98388.44;5039699;28;20041;-64
2022/02/06 13:29:38;;;;;;;48.03;16.15;;;;;;;-6.68;86.66;98371.31;5021406;28;20076;-64
2022/02/06 13:32:23;;;;;;;41.97;15.57;;;;;;;-6.65;86.17;98379.06;4996724;28;20046;-66
2022/02/06 13:38:00;;;;;;;49.58;17.13;;;;;;;-6.78;86.39;98391.09;4977593;28;20061;-64
2022/02/06 13:40:33;;;;;;;41.03;16.48;;;;;;;-6.83;86.58;98374.69;5016160;28;20641;-64
2022/02/06 13:43:01;;;;;;;43.30;16.33;;;;;;;-7.02;87.23;98358.97;4997957;28;20524;-64
2022/02/06 13:45:28;;;;;;;43.03;15.38;;;;;;;-6.83;86.88;98382.59;5005635;28;20512;-64
2022/02/06 13:47:56;;;;;;;45.47;16.52;;;;;;;-6.89;86.96;98381.09;5028463;28;20042;-64
2022/02/06 13:50:23;;;;;;;39.42;14.57;;;;;;;-6.87;87.52;98381.03;5020206;28;20054;-64
2022/02/06 13:53:09;;;;;;;35.85;12.77;;;;;;;-6.90;87.07;98389.06;4993578;28;20073;-64
2022/02/06 13:55:46;;;;;;;45.80;19.05;;;;;;;-7.08;89.04;98381.13;5022516;28;20370;-64
2022/02/06 13:58:13;;;;;;;41.95;17.45;;;;;;;-6.96;88.65;98384.09;5014018;28;20186;-62
2022/02/06 14:01:04;;;;;;;39.28;15.07;;;;;;;-7.12;87.81;98363.81;4988522;28;20061;-64